DTTF/GAF METAR and TAF weather

Enter ICAO airport designator
Station Type Date Time Source
DTTF METAR 2018/07/20 14:00 UTC NOAA

DTTF 201400Z 19010KT 8000 NSC 40/13 Q1010 SIROCCO


Station Type Date Time Source
DTTF Decoded METAR 2018/07/20 14:00 UTC NOAA

Gafsa, Tunisia (DTTF) 34-25N 008-49E 314M
Jul 20, 2018 - 10:00 AM EDT / 2018.07.20 1400 UTC
Wind: from the S (190 degrees) at 12 MPH (10 KT):0
Visibility: 4 mile(s):0
Temperature: 104 F (40 C)
Heat index: 102.9 F (39.4 C):1
Dew Point: 55 F (13 C)
Relative Humidity: 20%
Pressure (altimeter): 29.83 in. Hg (1010 hPa)
ob: DTTF 201400Z 19010KT 8000 NSC 40/13 Q1010 SIROCCO
cycle: 14

Station Type Date Time Source
DTTF TAF 2018/05/03 04:06 UTC NOAA

TAF DTTF 030352Z 0104/0313 25017KT CAVOK


Example: see airport list